Time;durP1;ratioP1;P1;durP2;ratioP2;P2;SDS_P1;SDS_P2;PMS_P1;PMS_P2;Temp;Humidity;BMP_temperature;BMP_pressure;BME280_temperature;BME280_humidity;BME280_pressure;Samples;Min_cycle;Max_cycle;Signal;HPM_P1;HPM_P2
2021/06/07 00:01:45;;;;;;;8.55;5.05;;;;;;;-142.75;65.70;78178.84;5014385;28;20026;-74
2021/06/07 00:04:11;;;;;;;10.05;5.57;;;;;;;-142.75;65.52;78176.88;5013761;28;20057;-74
2021/06/07 00:06:37;;;;;;;11.05;6.00;;;;;;;-142.75;65.51;78172.94;5031852;28;20026;-73
2021/06/07 00:09:05;;;;;;;10.32;6.15;;;;;;;-142.75;65.26;78176.88;5032196;28;20029;-73
2021/06/07 00:11:31;;;;;;;8.27;5.40;;;;;;;-142.75;64.86;78172.94;5014232;28;20071;-73
2021/06/07 00:13:56;;;;;;;6.05;5.25;;;;;;;-142.75;64.76;78167.03;5032053;28;20033;-73
2021/06/07 00:16:21;;;;;;;11.05;5.68;;;;;;;-142.75;64.88;78161.13;5031577;28;20055;-74
2021/06/07 00:18:47;;;;;;;7.75;5.38;;;;;;;-142.75;65.08;78163.09;5013784;28;20017;-73
2021/06/07 00:21:20;;;;;;;7.55;5.43;;;;;;;-142.75;65.16;78172.94;5031923;28;20060;-74
2021/06/07 00:23:47;;;;;;;7.22;5.47;;;;;;;-142.75;65.34;78178.84;5030972;28;20053;-73
2021/06/07 00:26:13;;;;;;;8.18;5.63;;;;;;;-142.75;65.20;78182.81;5013675;28;20556;-74
2021/06/07 00:28:38;;;;;;;10.27;6.00;;;;;;;-142.75;65.22;78180.81;5031789;28;20116;-74
2021/06/07 00:31:06;;;;;;;7.20;5.57;;;;;;;-142.75;65.21;78178.84;5013878;28;20104;-74
2021/06/07 00:33:32;;;;;;;9.00;6.15;;;;;;;-142.75;65.44;78188.72;5031697;28;20036;-73
2021/06/07 00:35:58;;;;;;;8.18;6.03;;;;;;;-142.75;65.60;78194.63;5030038;28;20087;-74
2021/06/07 00:38:24;;;;;;;;;;;;;;;-142.75;65.76;78198.56;5031013;28;20037;-73
2021/06/07 00:40:49;;;;;;;7.65;5.70;;;;;;;-142.75;65.79;78204.47;5031677;28;19967;-73
2021/06/07 00:43:15;;;;;;;7.25;5.78;;;;;;;-142.75;66.11;78210.38;5031610;28;20033;-72
2021/06/07 00:45:41;;;;;;;9.13;5.80;;;;;;;-142.75;65.83;78210.38;5013541;28;20053;-73
2021/06/07 00:48:07;;;;;;;9.80;5.60;;;;;;;-142.75;65.85;78212.34;5031585;28;20044;-74
2021/06/07 00:50:42;;;;;;;7.88;5.68;;;;;;;-142.75;65.89;78212.34;5031234;28;20112;-74
2021/06/07 00:53:11;;;;;;;7.30;5.25;;;;;;;-142.75;65.77;78208.41;5031285;28;20028;-74
2021/06/07 00:55:42;;;;;;;9.27;5.30;;;;;;;-142.75;65.77;78212.34;5012014;28;20053;-73
2021/06/07 00:58:09;;;;;;;8.23;5.10;;;;;;;-142.75;65.98;78212.34;5031429;28;20029;-73
2021/06/07 01:00:36;;;;;;;6.30;5.25;;;;;;;-142.75;65.90;78222.19;5031379;28;20037;-73
2021/06/07 01:03:03;;;;;;;8.13;5.00;;;;;;;-142.75;66.05;78226.13;5031179;28;20453;-73
2021/06/07 01:05:28;;;;;;;7.85;5.35;;;;;;;-142.75;65.93;78228.09;5030800;28;20029;-74
2021/06/07 01:07:54;;;;;;;9.98;5.70;;;;;;;-142.75;66.17;78228.09;5031339;28;20032;-74
2021/06/07 01:10:21;;;;;;;6.47;5.00;;;;;;;-142.75;66.41;78235.97;5013403;28;20025;-73
2021/06/07 01:12:46;;;;;;;5.88;4.57;;;;;;;-142.75;66.27;78234.00;5012426;28;20026;-74
2021/06/07 01:15:13;;;;;;;7.90;4.40;;;;;;;-142.75;66.00;78241.88;5030633;28;20048;-74
2021/06/07 01:17:38;;;;;;;;;;;;;;;-142.75;66.09;78239.91;5031256;28;20037;-74
2021/06/07 01:20:06;;;;;;;6.72;5.10;;;;;;;-142.75;66.05;78237.94;5013342;28;19958;-74
2021/06/07 01:22:33;;;;;;;7.05;4.70;;;;;;;-142.75;65.93;78237.94;5030903;28;20032;-73
2021/06/07 01:24:58;;;;;;;7.00;5.00;;;;;;;-142.75;65.62;78239.91;5030912;28;20499;-74
2021/06/07 01:27:24;;;;;;;6.97;5.72;;;;;;;-142.75;65.80;78245.81;5012127;28;20056;-74
2021/06/07 01:29:49;;;;;;;7.95;5.75;;;;;;;-142.75;65.75;78257.63;5030867;28;20032;-74
2021/06/07 01:32:15;;;;;;;8.93;5.80;;;;;;;-142.75;65.74;78255.66;5030979;28;20398;-74
2021/06/07 01:34:41;;;;;;;9.48;5.75;;;;;;;-142.75;66.05;78255.66;5030791;28;20025;-74
2021/06/07 01:37:06;;;;;;;8.90;6.20;;;;;;;-142.75;65.93;78253.69;5030668;28;20114;-74
2021/06/07 01:39:32;;;;;;;9.55;6.78;;;;;;;-142.75;66.17;78247.78;5030956;28;20446;-74
2021/06/07 01:41:57;;;;;;;8.45;6.40;;;;;;;-142.75;66.21;78251.72;5031011;28;20037;-74
2021/06/07 01:44:23;;;;;;;7.88;6.18;;;;;;;-142.75;66.35;78247.78;5030823;28;20033;-74
2021/06/07 01:46:49;;;;;;;7.90;5.75;;;;;;;-142.75;66.00;78247.78;5030536;28;20414;-74
2021/06/07 01:49:15;;;;;;;9.88;5.65;;;;;;;-142.75;66.08;78232.03;5014062;28;20071;-74
2021/06/07 01:51:41;;;;;;;;;;;;;;;-142.75;65.96;78247.78;5035256;28;20033;-74
2021/06/07 01:54:06;;;;;;;8.93;5.22;;;;;;;-142.75;65.88;78257.63;5016274;28;20050;-74
2021/06/07 01:56:32;;;;;;;11.15;5.78;;;;;;;-142.75;66.45;78265.50;5034518;28;20108;-74
2021/06/07 01:58:57;;;;;;;10.48;6.13;;;;;;;-142.75;66.47;78263.53;5034719;28;20056;-74
2021/06/07 02:01:23;;;;;;;8.85;6.60;;;;;;;-142.75;66.46;78267.47;5016614;28;20026;-74
2021/06/07 02:03:49;;;;;;;7.80;5.60;;;;;;;-142.75;66.86;78277.31;5034464;28;20033;-74
2021/06/07 02:06:19;;;;;;;9.30;6.03;;;;;;;-142.75;67.08;78267.47;5034246;28;20083;-74
2021/06/07 02:08:45;;;;;;;10.27;7.10;;;;;;;-142.75;67.01;78271.41;5034546;28;20029;-74
2021/06/07 02:11:16;;;;;;;11.07;6.75;;;;;;;-142.75;66.82;78275.34;5034526;28;20026;-74
2021/06/07 02:13:45;;;;;;;9.18;6.85;;;;;;;-142.75;66.73;78263.53;5034403;28;20026;-74
2021/06/07 02:16:15;;;;;;;10.40;7.20;;;;;;;-142.75;66.73;78261.56;5033650;28;20035;-73
2021/06/07 02:18:41;;;;;;;8.70;6.68;;;;;;;-142.75;66.76;78265.50;5034282;28;20028;-74
2021/06/07 02:21:08;;;;;;;10.45;7.32;;;;;;;-142.75;66.83;78275.34;5034333;28;20104;-74
2021/06/07 02:23:34;;;;;;;10.00;6.68;;;;;;;-142.75;66.70;78277.31;5034122;28;20489;-74
2021/06/07 02:25:59;;;;;;;9.38;6.55;;;;;;;-142.75;66.64;78281.25;5016295;28;20129;-73
2021/06/07 02:28:25;;;;;;;8.75;6.63;;;;;;;-142.75;66.52;78279.28;5034133;28;20112;-74
2021/06/07 02:30:51;;;;;;;;;;;;;;;-142.75;66.64;78271.41;5034560;28;20032;-74
2021/06/07 02:33:17;;;;;;;9.57;6.30;;;;;;;-142.75;66.48;78269.44;5033829;28;19913;-74
2021/06/07 02:35:42;;;;;;;;;;;;;;;-142.75;66.58;78279.28;5034190;28;20021;-74
2021/06/07 02:38:09;;;;;;;9.10;6.68;;;;;;;-142.75;66.35;78277.31;5033724;28;19913;-74
2021/06/07 02:40:35;;;;;;;7.20;5.88;;;;;;;-142.75;66.36;78287.16;5033896;28;20550;-74
2021/06/07 02:43:01;;;;;;;9.25;5.72;;;;;;;-142.75;66.23;78299.00;5015808;28;20075;-74
2021/06/07 02:45:28;;;;;;;9.00;6.75;;;;;;;-142.75;66.54;78306.88;5033702;28;20079;-73
2021/06/07 02:47:56;;;;;;;8.65;6.60;;;;;;;-142.75;66.58;78302.94;5033745;28;20049;-74
2021/06/07 02:50:25;;;;;;;9.18;6.15;;;;;;;-142.75;66.69;78310.81;5033595;28;20029;-73
2021/06/07 02:52:51;;;;;;;9.57;6.07;;;;;;;-142.75;66.78;78310.81;5033705;28;20026;-73
2021/06/07 02:55:22;;;;;;;8.25;6.55;;;;;;;-142.75;66.95;78318.69;5033505;28;20498;-74
2021/06/07 02:57:50;;;;;;;9.90;6.35;;;;;;;-142.75;67.08;78320.66;5015739;28;20048;-74
2021/06/07 03:00:37;;;;;;;8.13;6.30;;;;;;;-142.75;67.22;78318.69;5033023;28;20168;-74
2021/06/07 03:03:04;;;;;;;9.57;5.72;;;;;;;-142.75;67.20;78324.59;5032920;28;20041;-74
2021/06/07 03:05:31;;;;;;;8.23;5.85;;;;;;;-142.75;67.15;78328.53;5094347;22;20505;-72
2021/06/07 03:07:56;;;;;;;8.87;5.90;;;;;;;-142.75;67.11;78326.56;5073706;28;20130;-74
2021/06/07 03:10:22;;;;;;;7.07;6.00;;;;;;;-142.75;67.40;78330.50;5093265;28;20111;-74
2021/06/07 03:12:47;;;;;;;9.25;6.78;;;;;;;-142.75;67.44;78340.34;5075293;28;20030;-74
2021/06/07 03:15:15;;;;;;;11.25;6.60;;;;;;;-142.75;67.56;78342.31;5074699;28;20020;-74
2021/06/07 03:17:41;;;;;;;12.43;8.02;;;;;;;-142.75;67.70;78346.25;5074927;28;20070;-74
2021/06/07 03:20:09;;;;;;;12.05;7.63;;;;;;;-142.75;67.56;78342.31;5074983;28;20016;-73
2021/06/07 03:22:35;;;;;;;11.77;7.47;;;;;;;-142.75;67.50;78344.28;5093029;28;20024;-74
2021/06/07 03:25:01;;;;;;;10.93;7.30;;;;;;;-142.75;67.38;78338.38;5093191;28;20024;-74
2021/06/07 03:27:26;;;;;;;11.60;7.28;;;;;;;-142.75;67.43;78344.28;5092869;28;20450;-73
2021/06/07 03:29:51;;;;;;;10.35;6.93;;;;;;;-142.75;67.44;78330.50;5092873;28;20024;-73
2021/06/07 03:32:17;;;;;;;9.60;6.43;;;;;;;-142.75;67.19;78330.50;5074914;28;20073;-74
2021/06/07 03:34:42;;;;;;;7.82;5.55;;;;;;;-142.75;67.78;78332.47;5092861;28;20055;-74
2021/06/07 03:37:08;;;;;;;10.43;6.97;;;;;;;-142.75;67.78;78334.44;5092854;28;20054;-74
2021/06/07 03:39:33;;;;;;;10.63;7.38;;;;;;;-142.75;67.87;78342.31;5074875;28;20465;-74
2021/06/07 03:41:58;;;;;;;11.60;7.82;;;;;;;-142.75;68.02;78336.41;5092910;28;20043;-75
2021/06/07 03:44:24;;;;;;;13.73;8.40;;;;;;;-142.75;68.17;78330.50;5074602;28;20039;-74
2021/06/07 03:46:49;;;;;;;9.52;7.25;;;;;;;-142.75;68.24;78318.69;5074353;28;20024;-74
2021/06/07 03:49:15;;;;;;;11.63;7.47;;;;;;;-142.75;68.58;78299.00;5092691;28;20032;-74
2021/06/07 03:51:40;;;;;;;12.30;8.02;;;;;;;-142.75;68.21;78299.00;5092656;28;20055;-75
2021/06/07 03:54:05;;;;;;;9.02;6.75;;;;;;;-142.75;67.82;78300.97;5074393;28;20019;-74
2021/06/07 03:56:31;;;;;;;9.93;7.25;;;;;;;-142.75;67.93;78306.88;5074011;28;20019;-72
2021/06/07 03:58:56;;;;;;;10.07;7.72;;;;;;;-142.75;67.88;78302.94;5072831;28;20397;-74
2021/06/07 04:01:21;;;;;;;11.43;7.05;;;;;;;-142.75;68.01;78299.00;5073411;28;20039;-70
2021/06/07 04:03:47;;;;;;;9.05;6.97;;;;;;;-142.75;67.98;78297.00;5073083;28;20028;-75
2021/06/07 04:06:12;;;;;;;9.65;7.60;;;;;;;-142.75;67.91;78287.16;5091167;28;20451;-74
2021/06/07 04:08:38;;;;;;;15.32;7.82;;;;;;;-142.75;67.50;78283.22;5073025;28;20027;-73
2021/06/07 04:11:04;;;;;;;;;;;;;;;-142.75;67.69;78279.28;5091935;28;20020;-74
2021/06/07 04:13:29;;;;;;;9.45;6.38;;;;;;;-142.75;67.59;78271.41;5090676;28;19918;-73
2021/06/07 04:15:54;;;;;;;10.15;6.63;;;;;;;-142.75;67.49;78267.47;5091096;28;20505;-74
2021/06/07 04:18:20;;;;;;;10.40;7.07;;;;;;;-142.75;67.20;78257.63;5092268;28;20016;-75
2021/06/07 04:20:45;;;;;;;10.68;7.57;;;;;;;-142.75;67.59;78243.84;5073973;28;20378;-74
2021/06/07 04:23:11;;;;;;;11.10;7.53;;;;;;;-142.75;67.57;78235.97;5091230;28;20024;-74
2021/06/07 04:25:36;;;;;;;12.52;7.70;;;;;;;-142.75;67.75;78237.94;5089645;28;20027;-74
2021/06/07 04:28:03;;;;;;;13.30;7.32;;;;;;;-142.75;67.75;78222.19;5090081;28;20464;-74
2021/06/07 04:30:30;;;;;;;10.43;6.93;;;;;;;-142.75;67.63;78212.34;5089804;28;20077;-75
2021/06/07 04:32:57;;;;;;;12.45;7.30;;;;;;;-142.75;67.41;78204.47;5071289;28;20036;-74
2021/06/07 04:35:23;;;;;;;9.98;7.35;;;;;;;-142.75;67.33;78190.69;5089630;28;20027;-71
2021/06/07 04:37:53;;;;;;;;;;;;;;;-142.75;67.12;78184.78;5072309;28;20417;-74
2021/06/07 04:40:21;;;;;;;12.40;6.93;;;;;;;-142.75;67.12;78176.88;5091662;28;20296;-73
2021/06/07 04:42:47;;;;;;;11.40;7.65;;;;;;;-142.75;67.29;78172.94;5091643;28;20024;-73
2021/06/07 04:45:14;;;;;;;10.55;7.25;;;;;;;-142.75;67.34;78161.13;5091382;28;20085;-74
2021/06/07 04:47:39;;;;;;;12.05;7.05;;;;;;;-142.75;67.37;78153.25;5091372;28;20027;-73
2021/06/07 04:50:07;;;;;;;12.65;7.70;;;;;;;-142.75;67.32;78141.44;5091362;28;20032;-73
2021/06/07 04:52:35;;;;;;;11.27;7.90;;;;;;;-142.75;67.53;78137.50;5091539;28;20031;-73
2021/06/07 04:55:00;;;;;;;9.88;7.05;;;;;;;-142.75;67.69;78123.72;5091272;28;20097;-74
2021/06/07 04:57:26;;;;;;;12.40;7.45;;;;;;;-142.75;67.66;78106.00;5072825;28;20481;-74
2021/06/07 04:59:51;;;;;;;10.10;6.97;;;;;;;-142.75;67.61;78088.28;5073115;28;20017;-74
2021/06/07 05:02:16;;;;;;;9.30;7.05;;;;;;;-142.75;67.64;78070.56;5091338;28;20031;-73
2021/06/07 05:04:42;;;;;;;9.10;7.10;;;;;;;-142.75;67.65;78050.84;5091048;28;20027;-74
2021/06/07 05:07:08;;;;;;;10.85;6.93;;;;;;;-142.75;67.53;78039.03;5091426;28;20027;-74
2021/06/07 05:09:33;;;;;;;;;;;;;;;-142.75;67.59;78027.22;5091429;28;20028;-73
2021/06/07 05:11:58;;;;;;;10.32;7.10;;;;;;;-142.75;67.22;78001.63;5091195;28;20006;-74
2021/06/07 05:14:24;;;;;;;13.23;7.70;;;;;;;-142.75;67.01;77974.06;5072762;28;20409;-73
2021/06/07 05:16:49;;;;;;;13.70;7.82;;;;;;;-142.75;66.84;77932.72;5090897;28;20024;-71
2021/06/07 05:19:15;;;;;;;11.25;6.53;;;;;;;-142.75;66.11;77915.00;5073090;28;20020;-74
2021/06/07 05:21:40;;;;;;;;;;;;;;;-142.75;65.12;77877.56;5091431;28;20044;-75
2021/06/07 05:24:05;;;;;;;9.27;7.00;;;;;;;-142.75;64.13;77842.13;5090313;28;19962;-74
2021/06/07 05:26:31;;;;;;;;;;;;;;;-142.75;64.30;77826.38;5091021;28;20035;-74
2021/06/07 05:28:56;;;;;;;10.30;6.82;;;;;;;-142.75;63.48;77806.69;5072727;28;20336;-74
2021/06/07 05:31:24;;;;;;;;;;;;;;;-142.75;63.29;77775.19;5091282;28;20024;-73
2021/06/07 05:33:50;;;;;;;9.27;6.53;;;;;;;-142.75;62.56;77737.78;5090578;28;19918;-73
2021/06/07 05:36:15;;;;;;;8.75;6.05;;;;;;;-142.75;62.44;77708.22;5090540;28;20111;-74
2021/06/07 05:38:40;;;;;;;;;;;;;;;-142.75;61.25;77674.75;5073138;28;20085;-74
2021/06/07 05:41:05;;;;;;;11.10;5.88;;;;;;;-142.75;59.51;77637.34;5090789;28;20288;-74
2021/06/07 05:43:31;;;;;;;;;;;;;;;-142.75;58.82;77597.97;5091212;28;20027;-71
2021/06/07 05:45:56;;;;;;;7.57;5.30;;;;;;;-142.75;57.67;77558.59;5090465;28;20007;-74
2021/06/07 05:48:21;;;;;;;;;;;;;;;-142.75;56.49;77525.13;5091127;28;20042;-73
2021/06/07 05:50:47;;;;;;;9.18;5.50;;;;;;;-142.75;55.98;77491.66;5072499;28;19923;-74
2021/06/07 05:53:13;;;;;;;;;;;;;;;-142.75;55.47;77452.25;5091050;28;20016;-73
2021/06/07 05:55:41;;;;;;;8.82;4.68;;;;;;;-142.75;54.07;77412.88;5090258;28;19923;-73
2021/06/07 05:58:11;;;;;;;8.30;4.82;;;;;;;-142.75;53.52;77377.44;5090588;28;20024;-74
2021/06/07 06:00:39;;;;;;;9.10;4.90;;;;;;;-142.75;52.83;77322.31;5090594;28;20024;-74
2021/06/07 06:03:06;;;;;;;7.68;4.70;;;;;;;-142.75;52.34;77271.13;5090442;28;20040;-75
2021/06/07 06:05:32;;;;;;;6.38;4.30;;;;;;;-142.75;51.41;77235.69;5071976;28;20020;-74
2021/06/07 06:07:57;;;;;;;8.23;4.30;;;;;;;-142.75;50.29;77204.19;5090529;28;20035;-74
2021/06/07 06:10:22;;;;;;;7.35;4.57;;;;;;;-142.75;50.23;77166.78;5090464;28;20397;-74
2021/06/07 06:12:48;;;;;;;;;;;;;;;-142.75;49.35;77137.25;5072879;28;21094;-74
2021/06/07 06:15:17;;;;;;;10.98;4.43;;;;;;;-142.75;49.08;77101.81;5090337;28;19912;-73
2021/06/07 06:17:42;;;;;;;7.15;4.38;;;;;;;-142.75;48.62;77082.13;5072102;28;20161;-73
2021/06/07 06:20:08;;;;;;;8.40;3.97;;;;;;;-142.75;47.95;77058.50;5090326;28;20103;-72
2021/06/07 06:22:34;;;;;;;5.80;4.20;;;;;;;-142.75;47.29;77038.81;5090336;28;20039;-74
2021/06/07 06:25:00;;;;;;;7.72;4.70;;;;;;;-142.75;46.81;77019.13;5090365;28;20036;-71
2021/06/07 06:27:25;;;;;;;6.72;3.95;;;;;;;-142.75;46.98;76995.50;5089939;28;20036;-74
2021/06/07 06:29:51;;;;;;;5.95;4.00;;;;;;;-142.75;46.60;76979.75;5072136;28;20024;-74
2021/06/07 06:32:16;;;;;;;4.63;3.95;;;;;;;-142.75;46.54;76954.16;5089796;28;20052;-74
2021/06/07 06:34:43;;;;;;;5.72;4.40;;;;;;;-142.75;45.86;76928.56;5090332;28;20469;-73
2021/06/07 06:37:09;;;;;;;7.65;3.75;;;;;;;-142.75;45.05;76904.94;5093845;28;20498;-74
2021/06/07 06:39:34;;;;;;;5.90;3.88;;;;;;;-142.75;45.52;76881.31;5094278;28;20423;-74
2021/06/07 06:42:00;;;;;;;6.55;3.50;;;;;;;-142.75;44.61;76859.66;5093951;28;20028;-73
2021/06/07 06:44:26;;;;;;;5.05;3.80;;;;;;;-142.75;44.20;76818.31;5093819;28;20432;-74
2021/06/07 06:46:52;;;;;;;6.45;3.80;;;;;;;-142.75;43.91;76784.88;5093568;28;20122;-74
2021/06/07 06:49:17;;;;;;;7.95;3.85;;;;;;;-142.75;43.02;76749.44;5093698;28;20047;-74
2021/06/07 06:51:43;;;;;;;7.80;3.70;;;;;;;-142.75;43.08;76694.31;5093797;28;20016;-74
2021/06/07 06:54:08;;;;;;;8.80;4.10;;;;;;;-142.75;40.36;76708.09;5075373;28;20077;-72
2021/06/07 06:56:34;;;;;;;6.55;3.97;;;;;;;-142.75;42.66;76712.03;5093394;28;20063;-74
2021/06/07 06:58:59;;;;;;;6.07;4.03;;;;;;;-142.75;41.53;76658.88;5093515;28;20043;-75
2021/06/07 07:01:26;;;;;;;7.20;3.95;;;;;;;-142.75;41.68;76605.72;5093558;28;20016;-73
2021/06/07 07:03:51;;;;;;;7.30;3.50;;;;;;;-142.75;40.98;76538.78;5093321;28;20032;-75
2021/06/07 07:06:16;;;;;;;6.20;3.60;;;;;;;-142.75;40.53;76467.94;5093546;28;20531;-74
2021/06/07 07:08:42;;;;;;;4.90;3.75;;;;;;;-142.75;39.00;76442.34;5093390;28;20103;-75
2021/06/07 07:11:07;;;;;;;5.25;3.53;;;;;;;-142.75;38.84;76432.50;5093293;28;20046;-75
2021/06/07 07:13:33;;;;;;;6.60;3.55;;;;;;;-142.75;38.59;76422.66;5093277;28;20020;-74
2021/06/07 07:15:58;;;;;;;4.30;3.20;;;;;;;-142.75;39.02;76381.31;5092927;28;20052;-74
2021/06/07 07:18:24;;;;;;;5.40;3.67;;;;;;;-142.75;39.13;76527.00;5093332;28;20031;-74
2021/06/07 07:20:49;;;;;;;6.55;4.15;;;;;;;-142.75;39.74;76460.06;5093178;28;20063;-74
2021/06/07 07:23:15;;;;;;;5.43;3.50;;;;;;;-142.75;38.81;76395.09;5093243;28;20516;-75
2021/06/07 07:25:41;;;;;;;6.82;3.00;;;;;;;-142.75;37.85;76343.94;5092624;28;20042;-75
2021/06/07 07:28:08;;;;;;;5.80;3.33;;;;;;;-142.75;36.44;76365.56;5093159;28;20107;-75
2021/06/07 07:30:34;;;;;;;4.15;3.13;;;;;;;-142.75;38.18;76341.97;5074466;28;20035;-74
2021/06/07 07:33:02;;;;;;;4.47;2.88;;;;;;;-142.75;37.16;76275.03;5092512;28;20036;-74
2021/06/07 07:35:27;;;;;;;4.00;2.83;;;;;;;-142.75;37.02;76229.75;5074353;28;20020;-74
2021/06/07 07:37:53;;;;;;;3.92;3.05;;;;;;;-142.75;36.72;76269.13;5074909;28;20019;-75
2021/06/07 07:40:21;;;;;;;5.05;2.80;;;;;;;-142.75;35.68;76168.75;5092773;28;20088;-75
2021/06/07 07:42:48;;;;;;;5.65;3.15;;;;;;;-142.75;35.74;76135.28;5092745;28;20027;-75
2021/06/07 07:45:16;;;;;;;5.72;3.17;;;;;;;-142.75;35.28;76086.06;5074524;28;20541;-75
2021/06/07 07:47:42;;;;;;;6.65;3.97;;;;;;;-142.75;34.84;76070.34;5091836;28;20503;-75
2021/06/07 07:50:11;;;;;;;7.03;3.63;;;;;;;-142.75;33.55;76090.00;5092602;28;20032;-76
2021/06/07 07:52:41;;;;;;;5.88;3.47;;;;;;;-142.75;34.86;76074.25;5092511;28;20046;-75
2021/06/07 07:55:11;;;;;;;5.70;3.35;;;;;;;-142.75;33.56;76023.09;5092251;28;20020;-74
2021/06/07 07:57:37;;;;;;;5.05;3.10;;;;;;;-142.75;34.36;76034.91;5073908;28;20020;-75
2021/06/07 08:00:06;;;;;;;4.18;2.90;;;;;;;-142.75;33.40;75977.81;5092422;28;20514;-73
2021/06/07 08:02:31;;;;;;;7.88;3.17;;;;;;;-142.75;32.88;75928.63;5092422;28;20035;-74
2021/06/07 08:04:57;;;;;;;5.30;2.92;;;;;;;-142.75;33.10;75916.81;5092212;28;20036;-75
2021/06/07 08:07:22;;;;;;;6.60;3.03;;;;;;;-142.75;31.09;75891.22;5073830;28;20081;-75
2021/06/07 08:09:49;;;;;;;7.60;2.47;;;;;;;-142.75;32.24;75889.25;5091946;28;20039;-74
2021/06/07 08:12:15;;;;;;;6.72;2.92;;;;;;;-142.75;33.66;76011.28;5092105;28;20024;-74
2021/06/07 08:14:40;;;;;;;6.13;2.55;;;;;;;-142.75;33.58;75924.69;5092092;28;20438;-75
2021/06/07 08:17:05;;;;;;;4.20;2.80;;;;;;;-142.75;31.95;75916.81;5091783;28;20023;-75
2021/06/07 08:19:31;;;;;;;3.88;2.33;;;;;;;-142.75;31.88;75891.22;5092065;28;20043;-74
2021/06/07 08:21:56;;;;;;;6.20;2.72;;;;;;;-142.75;31.18;75845.97;5092025;28;20031;-75
2021/06/07 08:24:21;;;;;;;6.13;2.80;;;;;;;-142.75;32.04;75849.91;5091781;28;20044;-75
2021/06/07 08:26:47;;;;;;;4.15;2.08;;;;;;;-142.75;32.01;75794.78;5091586;28;20466;-74
2021/06/07 08:29:12;;;;;;;3.95;2.20;;;;;;;-142.75;31.57;75755.44;5091873;28;20059;-75
2021/06/07 08:31:38;;;;;;;4.55;2.30;;;;;;;-142.75;31.10;75769.19;5073699;28;20024;-75
2021/06/07 08:34:05;;;;;;;4.82;2.55;;;;;;;-142.75;30.29;75767.22;5073105;28;20020;-76
2021/06/07 08:36:32;;;;;;;4.53;2.30;;;;;;;-142.75;30.42;75765.25;5091392;28;20112;-75
2021/06/07 08:38:57;;;;;;;7.40;2.35;;;;;;;-142.75;30.31;75836.13;5091716;28;20039;-74
2021/06/07 08:41:23;;;;;;;4.70;2.40;;;;;;;-142.75;30.00;75830.22;5091697;28;20032;-74
2021/06/07 08:43:49;;;;;;;4.03;2.45;;;;;;;-142.75;30.89;75747.56;5091580;28;20073;-75
2021/06/07 08:46:14;;;;;;;6.30;2.03;;;;;;;-142.75;31.53;75877.44;5073211;28;20401;-74
2021/06/07 08:48:40;;;;;;;3.90;2.50;;;;;;;-142.75;30.40;75782.97;5091353;28;20095;-75
2021/06/07 08:51:06;;;;;;;4.82;2.40;;;;;;;-142.75;29.83;75782.97;5091495;28;20028;-75
2021/06/07 08:53:32;;;;;;;4.90;2.47;;;;;;;-142.75;30.64;75727.88;5091179;28;20027;-74
2021/06/07 08:55:58;;;;;;;5.97;2.78;;;;;;;-142.75;30.09;76029.00;5091214;28;20028;-74
2021/06/07 08:58:26;;;;;;;8.90;2.90;;;;;;;-142.75;31.85;76107.72;5090635;28;20398;-74
2021/06/07 09:00:52;;;;;;;5.28;2.20;;;;;;;-142.75;31.46;75956.19;5091192;28;20391;-74
2021/06/07 09:03:20;;;;;;;3.55;2.15;;;;;;;-142.75;31.84;75806.59;5073157;28;20102;-75
2021/06/07 09:05:53;;;;;;;6.07;2.60;;;;;;;-142.75;29.07;75845.97;5090654;22;20056;-73
2021/06/07 09:08:19;;;;;;;7.05;2.65;;;;;;;-142.75;29.94;75873.50;5069751;28;20027;-74
2021/06/07 09:10:48;;;;;;;5.07;2.97;;;;;;;-142.75;30.95;75928.63;5052940;28;20040;-74
2021/06/07 09:13:16;;;;;;;5.78;2.60;;;;;;;-142.75;31.25;75773.13;5071040;28;20104;-74
2021/06/07 09:15:55;;;;;;;6.10;3.08;;;;;;;-142.75;29.11;75830.22;5070694;28;20020;-74
2021/06/07 09:18:36;;;;;;;7.75;3.17;;;;;;;-142.75;31.01;76046.72;5070913;28;20024;-73
2021/06/07 09:21:14;;;;;;;5.07;3.30;;;;;;;-142.75;32.06;76021.13;5071147;28;20024;-74
2021/06/07 09:23:42;;;;;;;5.45;3.03;;;;;;;-142.75;29.92;75950.28;5071239;28;20036;-74
2021/06/07 09:26:26;;;;;;;4.40;2.65;;;;;;;-142.75;31.39;75804.63;5070669;28;20107;-74
2021/06/07 09:28:55;;;;;;;4.57;2.90;;;;;;;-142.75;29.82;75710.16;5071034;28;20717;-74
2021/06/07 09:31:31;;;;;;;7.28;3.20;;;;;;;-142.75;31.15;75844.00;5070920;28;20024;-74
2021/06/07 09:34:01;;;;;;;6.65;3.47;;;;;;;-142.75;30.33;75912.88;5070155;28;20436;-74
2021/06/07 09:36:32;;;;;;;5.32;3.33;;;;;;;-142.75;31.79;76054.59;5070419;28;20546;-73
2021/06/07 09:39:13;;;;;;;7.40;4.20;;;;;;;-142.75;32.32;76215.97;5070818;28;20143;-74
2021/06/07 09:41:49;;;;;;;7.13;3.65;;;;;;;-142.75;33.69;76345.91;5070824;28;20432;-74
2021/06/07 09:44:43;;;;;;;8.20;3.40;;;;;;;-142.75;35.12;76147.09;5070705;28;20039;-74
2021/06/07 09:47:13;;;;;;;5.15;2.90;;;;;;;-142.75;32.13;75914.84;5066390;28;20098;-73
2021/06/07 09:49:42;;;;;;;6.05;2.80;;;;;;;-142.75;29.58;75796.75;5052501;28;20032;-75
2021/06/07 09:52:10;;;;;;;3.80;2.35;;;;;;;-142.75;30.31;75786.91;5070522;28;20033;-75
2021/06/07 09:54:36;;;;;;;5.95;2.95;;;;;;;-142.75;30.69;75751.50;5070659;28;20131;-74
2021/06/07 09:57:01;;;;;;;5.75;3.00;;;;;;;-142.75;30.66;76113.63;5070361;28;20559;-74
2021/06/07 09:59:29;;;;;;;5.65;2.50;;;;;;;-142.75;33.51;76156.94;5070462;28;20486;-75
2021/06/07 10:01:57;;;;;;;6.53;2.85;;;;;;;-142.75;32.63;76030.97;5069576;28;20020;-75
2021/06/07 10:04:57;;;;;;;5.85;2.50;;;;;;;-142.75;33.55;75997.50;5070201;28;20024;-75
2021/06/07 10:07:24;;;;;;;5.90;2.72;;;;;;;-142.75;32.13;76210.06;5051889;28;20051;-75
2021/06/07 10:10:13;;;;;;;5.20;2.40;;;;;;;-142.75;31.29;76066.41;5070722;28;20052;-74
2021/06/07 10:12:40;;;;;;;4.85;2.80;;;;;;;-142.75;32.08;76113.63;5056789;28;20390;-75
2021/06/07 10:15:08;;;;;;;4.45;2.40;;;;;;;-142.75;30.38;75944.38;5056212;28;20154;-75
2021/06/07 10:17:34;;;;;;;3.55;2.15;;;;;;;-142.75;31.15;75861.69;5074171;28;20031;-75
2021/06/07 10:22:38;;;;;;;5.43;2.45;;;;;;;-142.75;30.53;75761.34;5074109;28;20032;-75
2021/06/07 10:25:07;;;;;;;5.70;2.60;;;;;;;-142.75;29.88;75849.91;5056502;28;20414;-75
2021/06/07 10:27:33;;;;;;;5.40;2.75;;;;;;;-142.75;29.86;76017.19;5073752;28;20029;-75
2021/06/07 10:29:59;;;;;;;4.47;2.53;;;;;;;-142.75;32.30;76064.44;5074169;28;20033;-75
2021/06/07 10:32:29;;;;;;;4.05;2.55;;;;;;;-142.75;30.75;75912.88;5073654;28;20478;-75
2021/06/07 10:34:57;;;;;;;5.43;2.65;;;;;;;-142.75;31.33;75849.91;5055992;28;20028;-75
2021/06/07 10:37:25;;;;;;;8.43;2.67;;;;;;;-142.75;29.99;75690.47;5073525;28;20020;-76
2021/06/07 10:39:50;;;;;;;5.15;2.50;;;;;;;-142.75;30.24;75613.72;5073998;28;20664;-75
2021/06/07 10:42:24;;;;;;;6.18;2.70;;;;;;;-142.75;29.03;75735.75;5056122;28;20058;-75
2021/06/07 10:45:20;;;;;;;4.82;2.45;;;;;;;-142.75;29.33;75609.78;5055655;28;20066;-75
2021/06/07 10:47:46;;;;;;;4.10;2.55;;;;;;;-142.75;29.40;75538.94;5073697;28;20028;-75
2021/06/07 10:50:16;;;;;;;5.65;3.20;;;;;;;-142.75;27.99;75682.59;5073719;28;20107;-75
2021/06/07 10:52:50;;;;;;;5.47;3.10;;;;;;;-142.75;29.16;75727.88;5073586;28;20024;-76
2021/06/07 10:55:21;;;;;;;4.70;2.35;;;;;;;-142.75;30.80;75716.06;5072072;28;20032;-75
2021/06/07 10:57:46;;;;;;;5.10;2.97;;;;;;;-142.75;30.28;75910.91;5055652;28;20500;-75
2021/06/07 11:00:24;;;;;;;6.45;3.00;;;;;;;-142.75;31.09;75954.22;5055638;28;20021;-75
2021/06/07 11:02:52;;;;;;;5.10;2.63;;;;;;;-142.75;31.46;75905.00;5073724;28;20032;-75
2021/06/07 11:05:39;;;;;;;4.93;3.30;;;;;;;-142.75;30.71;75812.50;5073466;28;20028;-75
2021/06/07 11:08:07;;;;;;;5.00;2.90;;;;;;;-142.75;29.77;75674.72;5055690;28;20020;-75
2021/06/07 11:10:40;;;;;;;5.25;3.35;;;;;;;-142.75;28.24;75668.84;5073347;28;20403;-76
2021/06/07 11:13:08;;;;;;;9.45;3.10;;;;;;;-142.75;29.43;75836.13;5073537;28;20033;-76
2021/06/07 11:15:37;;;;;;;3.67;2.35;;;;;;;-142.75;30.79;75720.00;5072771;28;20039;-75
2021/06/07 11:18:22;;;;;;;9.25;3.08;;;;;;;-142.75;29.38;75641.28;5073093;28;20029;-75
2021/06/07 11:21:09;;;;;;;9.25;3.60;;;;;;;-142.75;28.74;75670.81;5073384;28;20482;-75
2021/06/07 11:23:36;;;;;;;5.28;2.60;;;;;;;-142.75;28.89;75605.84;5064779;28;20043;-75